Wales, AK

7:56 AM AKDT on September 18, 2014 (GMT -0800)
Tin City LRRS | Change Station
CLOSE
Current Station
Airport
Location: Tin City,
Elevation: 272 ft
Nearby Weather Stations

Elev 272 ft 65.56 °N, 167.92 °W | Updated 1 hour ago

Light Rain Showers
Light Showers Rain
41 °F
Feels Like 32 °F
N
23
Wind Variable Wind from NNE

Today
High -- | Low -- °F
--% Chance of Precip.
Yesterday
High -- | Low -- °F
Precip. -- in
8:42 AM 9:26 PM
Waning Crescent, 26% visible
Pressure 29.45 in
Visibility 4.0 miles
Clouds Mostly Cloudy 700 ft
Windchill 32 °F
Dew Point 41 °F
Humidity 97%
Rainfall 0.03 in
Snow Depth 109 in , 0 in , 0 in
UV 0 out of 12
Pollen Not available.
Air Quality Not available.
Flu Activity Not available.
METAR PATC 181455Z AUTO 03020KT 4SM -SHRA BKN007 05/05 A2944 RMK AO2 SHRAB1355 SLP971 P0001 60003 T00520048 50001

More Conditions Fewer Conditions

Pressure 29.45 in
Visibility 4.0 miles
Clouds Mostly Cloudy 700 ft
Windchill 32 °F
Dew Point 41 °F
Humidity 97%
Rainfall 0.03 in
Snow Depth 109 in , 0 in , 0 in
UV 0 out of 12
Pollen Not available.
Air Quality Not available.
Flu Activity Not available.
METAR PATC 181455Z AUTO 03020KT 4SM -SHRA BKN007 05/05 A2944 RMK AO2 SHRAB1355 SLP971 P0001 60003 T00520048 50001

More Conditions Fewer Conditions

10-Day Weather Forecast

Almanac

Astronomy

Sep. 18, 2014 Rise Set
Actual Time 8:42 AM AKDT 9:26 PM AKDT
Civil Twilight 7:51 AM AKDT 10:17 PM AKDT
Nautical Twilight 6:46 AM AKDT 11:21 PM AKDT
Astronomical Twilight 5:27 AM AKDT 12:39 AM AKDT
Moon 2:10 AM AKDT 7:49 PM AKDT
Length of Visible Light 14h 26m
Length of Day
12h 44m
Tomorrow will be 6m 51s shorter.
Waning Crescent, 26% of the Moon is Illuminated
Today
Waning Crescent
Sep 24
New
Oct 1
First Quarter
Oct 8
Full
Oct 15
Last Quarter

Today's Extremes

State Highs State Lows

Community

WunderPhotos

Upload Photos

1,754,388 photos uploaded!

Nearby

Snow Depth

Station Depth Elevation
Susitna Valley High 109 in 375 ft
Fort Yukon 0 in 430 ft
Moraine 0 in 2100 ft
Upper Tsaina River 0 in 1750 ft
Upper Chena 1 in 2850 ft

Earthquake Activity

City Distance Mag. Time & Date
No recent earthquake activity has been reported nearby.
Minimum magnitude displayed is 2.5.

Coastal Water Temperatures

Place Temperature
No Stations Reporting

Nearby Weather Stations